sensor_id;sensor_type;location;lat;lon;timestamp;P1;durP1;ratioP1;P2;durP2;ratioP2
5277;SDS011;2662;51.194;6.614;2023-03-24T00:01:05;1.67;;;1.03;;
5277;SDS011;2662;51.194;6.614;2023-03-24T00:03:32;1.00;;;1.00;;
5277;SDS011;2662;51.194;6.614;2023-03-24T00:06:00;3.93;;;1.43;;
5277;SDS011;2662;51.194;6.614;2023-03-24T00:08:29;1.17;;;1.00;;
5277;SDS011;2662;51.194;6.614;2023-03-24T00:11:00;1.37;;;1.10;;
5277;SDS011;2662;51.194;6.614;2023-03-24T00:13:30;3.07;;;1.00;;
5277;SDS011;2662;51.194;6.614;2023-03-24T00:16:02;1.23;;;1.10;;
5277;SDS011;2662;51.194;6.614;2023-03-24T00:18:30;1.10;;;1.00;;
5277;SDS011;2662;51.194;6.614;2023-03-24T00:20:57;1.07;;;1.07;;
5277;SDS011;2662;51.194;6.614;2023-03-24T00:23:24;1.23;;;1.13;;
5277;SDS011;2662;51.194;6.614;2023-03-24T00:25:58;1.83;;;1.20;;
5277;SDS011;2662;51.194;6.614;2023-03-24T00:28:28;3.00;;;1.00;;
5277;SDS011;2662;51.194;6.614;2023-03-24T00:30:57;1.33;;;1.23;;
5277;SDS011;2662;51.194;6.614;2023-03-24T00:33:24;3.60;;;1.07;;
5277;SDS011;2662;51.194;6.614;2023-03-24T00:35:51;1.60;;;1.30;;
5277;SDS011;2662;51.194;6.614;2023-03-24T00:38:19;2.80;;;1.37;;
5277;SDS011;2662;51.194;6.614;2023-03-24T00:40:46;3.70;;;0.90;;
5277;SDS011;2662;51.194;6.614;2023-03-24T00:43:15;1.20;;;1.10;;
5277;SDS011;2662;51.194;6.614;2023-03-24T00:45:42;1.50;;;1.30;;
5277;SDS011;2662;51.194;6.614;2023-03-24T00:48:10;1.53;;;1.43;;
5277;SDS011;2662;51.194;6.614;2023-03-24T00:50:37;2.40;;;1.23;;
5277;SDS011;2662;51.194;6.614;2023-03-24T00:53:05;1.90;;;1.63;;
5277;SDS011;2662;51.194;6.614;2023-03-24T00:55:34;2.47;;;1.23;;
5277;SDS011;2662;51.194;6.614;2023-03-24T00:58:02;1.40;;;1.30;;
5277;SDS011;2662;51.194;6.614;2023-03-24T01:00:31;9.67;;;1.50;;
5277;SDS011;2662;51.194;6.614;2023-03-24T01:02:57;2.20;;;1.67;;
5277;SDS011;2662;51.194;6.614;2023-03-24T01:05:27;1.77;;;1.20;;
5277;SDS011;2662;51.194;6.614;2023-03-24T01:07:56;2.10;;;1.43;;
5277;SDS011;2662;51.194;6.614;2023-03-24T01:10:27;3.17;;;1.60;;
5277;SDS011;2662;51.194;6.614;2023-03-24T01:12:56;2.73;;;1.57;;
5277;SDS011;2662;51.194;6.614;2023-03-24T01:15:25;2.53;;;1.40;;
5277;SDS011;2662;51.194;6.614;2023-03-24T01:17:55;1.63;;;1.47;;
5277;SDS011;2662;51.194;6.614;2023-03-24T01:20:22;5.20;;;1.53;;
5277;SDS011;2662;51.194;6.614;2023-03-24T01:22:50;2.60;;;1.50;;
5277;SDS011;2662;51.194;6.614;2023-03-24T01:25:17;2.33;;;2.00;;
5277;SDS011;2662;51.194;6.614;2023-03-24T01:27:46;1.50;;;1.40;;
5277;SDS011;2662;51.194;6.614;2023-03-24T01:30:15;3.30;;;1.77;;
5277;SDS011;2662;51.194;6.614;2023-03-24T01:32:43;1.90;;;1.60;;
5277;SDS011;2662;51.194;6.614;2023-03-24T01:35:11;3.30;;;1.77;;
5277;SDS011;2662;51.194;6.614;2023-03-24T01:37:39;2.03;;;1.67;;
5277;SDS011;2662;51.194;6.614;2023-03-24T01:40:06;2.30;;;2.00;;
5277;SDS011;2662;51.194;6.614;2023-03-24T01:42:35;3.80;;;1.87;;
5277;SDS011;2662;51.194;6.614;2023-03-24T01:48:03;3.77;;;1.83;;
5277;SDS011;2662;51.194;6.614;2023-03-24T01:50:33;1.77;;;1.67;;
5277;SDS011;2662;51.194;6.614;2023-03-24T01:53:00;2.00;;;1.80;;
5277;SDS011;2662;51.194;6.614;2023-03-24T01:55:27;2.20;;;2.00;;
5277;SDS011;2662;51.194;6.614;2023-03-24T01:57:57;2.80;;;2.20;;
5277;SDS011;2662;51.194;6.614;2023-03-24T02:00:25;2.53;;;2.13;;
5277;SDS011;2662;51.194;6.614;2023-03-24T02:02:53;2.87;;;1.80;;
5277;SDS011;2662;51.194;6.614;2023-03-24T02:05:23;2.27;;;2.07;;
5277;SDS011;2662;51.194;6.614;2023-03-24T02:07:55;2.17;;;2.00;;
5277;SDS011;2662;51.194;6.614;2023-03-24T02:10:27;1.97;;;1.87;;
5277;SDS011;2662;51.194;6.614;2023-03-24T02:12:56;2.00;;;1.80;;
5277;SDS011;2662;51.194;6.614;2023-03-24T02:15:23;3.00;;;2.30;;
5277;SDS011;2662;51.194;6.614;2023-03-24T02:17:57;2.20;;;1.70;;
5277;SDS011;2662;51.194;6.614;2023-03-24T02:23:38;1.90;;;1.80;;
5277;SDS011;2662;51.194;6.614;2023-03-24T02:26:26;1.87;;;1.70;;
5277;SDS011;2662;51.194;6.614;2023-03-24T02:29:19;2.20;;;2.07;;
5277;SDS011;2662;51.194;6.614;2023-03-24T02:32:30;1.30;;;1.20;;
5277;SDS011;2662;51.194;6.614;2023-03-24T02:38:27;2.63;;;1.60;;
5277;SDS011;2662;51.194;6.614;2023-03-24T02:41:18;2.90;;;1.87;;
5277;SDS011;2662;51.194;6.614;2023-03-24T02:43:52;7.60;;;2.10;;
5277;SDS011;2662;51.194;6.614;2023-03-24T02:46:28;2.03;;;1.83;;
5277;SDS011;2662;51.194;6.614;2023-03-24T02:49:09;2.50;;;2.00;;
5277;SDS011;2662;51.194;6.614;2023-03-24T02:51:46;7.10;;;1.73;;
5277;SDS011;2662;51.194;6.614;2023-03-24T02:54:20;2.00;;;1.80;;
5277;SDS011;2662;51.194;6.614;2023-03-24T02:56:54;2.27;;;1.90;;
5277;SDS011;2662;51.194;6.614;2023-03-24T02:59:26;1.80;;;1.70;;
5277;SDS011;2662;51.194;6.614;2023-03-24T03:02:01;2.80;;;1.80;;
5277;SDS011;2662;51.194;6.614;2023-03-24T03:04:32;4.60;;;1.50;;
5277;SDS011;2662;51.194;6.614;2023-03-24T03:07:04;1.50;;;1.50;;
5277;SDS011;2662;51.194;6.614;2023-03-24T03:09:36;1.70;;;1.60;;
5277;SDS011;2662;51.194;6.614;2023-03-24T03:12:07;1.70;;;1.60;;
5277;SDS011;2662;51.194;6.614;2023-03-24T03:14:38;1.83;;;1.73;;
5277;SDS011;2662;51.194;6.614;2023-03-24T03:17:08;1.80;;;1.70;;
5277;SDS011;2662;51.194;6.614;2023-03-24T03:19:39;1.40;;;1.30;;
5277;SDS011;2662;51.194;6.614;2023-03-24T03:22:09;4.07;;;1.93;;
5277;SDS011;2662;51.194;6.614;2023-03-24T03:24:40;3.90;;;1.67;;
5277;SDS011;2662;51.194;6.614;2023-03-24T03:27:13;1.77;;;1.63;;
5277;SDS011;2662;51.194;6.614;2023-03-24T03:29:44;2.43;;;1.80;;
5277;SDS011;2662;51.194;6.614;2023-03-24T03:32:16;1.90;;;1.70;;
5277;SDS011;2662;51.194;6.614;2023-03-24T03:34:49;1.80;;;1.43;;
5277;SDS011;2662;51.194;6.614;2023-03-24T03:37:23;1.87;;;1.77;;
5277;SDS011;2662;51.194;6.614;2023-03-24T03:39:56;1.63;;;1.53;;
5277;SDS011;2662;51.194;6.614;2023-03-24T03:42:26;1.60;;;1.53;;
5277;SDS011;2662;51.194;6.614;2023-03-24T03:44:53;1.77;;;1.67;;
5277;SDS011;2662;51.194;6.614;2023-03-24T03:47:20;2.73;;;1.80;;
5277;SDS011;2662;51.194;6.614;2023-03-24T03:49:47;2.00;;;1.77;;
5277;SDS011;2662;51.194;6.614;2023-03-24T03:52:15;1.73;;;1.63;;
5277;SDS011;2662;51.194;6.614;2023-03-24T03:54:42;2.60;;;1.83;;
5277;SDS011;2662;51.194;6.614;2023-03-24T03:57:10;2.20;;;2.00;;
5277;SDS011;2662;51.194;6.614;2023-03-24T03:59:40;2.90;;;1.80;;
5277;SDS011;2662;51.194;6.614;2023-03-24T04:02:11;2.90;;;2.07;;
5277;SDS011;2662;51.194;6.614;2023-03-24T04:05:03;4.57;;;1.80;;
5277;SDS011;2662;51.194;6.614;2023-03-24T04:07:46;1.77;;;1.67;;
5277;SDS011;2662;51.194;6.614;2023-03-24T04:10:35;1.80;;;1.70;;
5277;SDS011;2662;51.194;6.614;2023-03-24T04:13:20;2.20;;;2.00;;
5277;SDS011;2662;51.194;6.614;2023-03-24T04:15:57;2.90;;;2.43;;
5277;SDS011;2662;51.194;6.614;2023-03-24T04:18:35;2.70;;;2.03;;
5277;SDS011;2662;51.194;6.614;2023-03-24T04:21:30;2.67;;;1.97;;
5277;SDS011;2662;51.194;6.614;2023-03-24T04:24:12;3.00;;;2.30;;
5277;SDS011;2662;51.194;6.614;2023-03-24T04:26:52;2.20;;;1.83;;
5277;SDS011;2662;51.194;6.614;2023-03-24T04:29:27;3.33;;;2.90;;
5277;SDS011;2662;51.194;6.614;2023-03-24T04:32:00;2.10;;;1.90;;
5277;SDS011;2662;51.194;6.614;2023-03-24T04:34:36;3.23;;;2.00;;
5277;SDS011;2662;51.194;6.614;2023-03-24T04:37:07;2.10;;;1.90;;
5277;SDS011;2662;51.194;6.614;2023-03-24T04:39:38;1.33;;;1.23;;
5277;SDS011;2662;51.194;6.614;2023-03-24T04:42:08;1.60;;;1.50;;
5277;SDS011;2662;51.194;6.614;2023-03-24T04:44:38;1.73;;;1.30;;
5277;SDS011;2662;51.194;6.614;2023-03-24T04:47:07;2.80;;;1.80;;
5277;SDS011;2662;51.194;6.614;2023-03-24T04:49:36;2.50;;;1.43;;
5277;SDS011;2662;51.194;6.614;2023-03-24T04:52:03;8.30;;;1.50;;
5277;SDS011;2662;51.194;6.614;2023-03-24T04:54:31;1.47;;;1.37;;
5277;SDS011;2662;51.194;6.614;2023-03-24T04:56:59;1.47;;;1.33;;
5277;SDS011;2662;51.194;6.614;2023-03-24T04:59:26;1.50;;;1.40;;
5277;SDS011;2662;51.194;6.614;2023-03-24T05:01:53;5.43;;;1.20;;
5277;SDS011;2662;51.194;6.614;2023-03-24T05:04:22;1.20;;;1.10;;
5277;SDS011;2662;51.194;6.614;2023-03-24T05:06:50;3.37;;;1.17;;
5277;SDS011;2662;51.194;6.614;2023-03-24T05:09:17;1.93;;;1.10;;
5277;SDS011;2662;51.194;6.614;2023-03-24T05:11:46;2.77;;;0.87;;
5277;SDS011;2662;51.194;6.614;2023-03-24T05:14:13;1.37;;;0.90;;
5277;SDS011;2662;51.194;6.614;2023-03-24T05:16:40;4.40;;;1.30;;
5277;SDS011;2662;51.194;6.614;2023-03-24T05:19:07;1.30;;;1.07;;
5277;SDS011;2662;51.194;6.614;2023-03-24T05:21:35;5.07;;;0.90;;
5277;SDS011;2662;51.194;6.614;2023-03-24T05:24:02;2.17;;;1.00;;
5277;SDS011;2662;51.194;6.614;2023-03-24T05:26:29;0.93;;;0.77;;
5277;SDS011;2662;51.194;6.614;2023-03-24T05:28:56;2.20;;;0.90;;
5277;SDS011;2662;51.194;6.614;2023-03-24T05:31:23;3.30;;;1.00;;
5277;SDS011;2662;51.194;6.614;2023-03-24T05:33:49;2.53;;;0.90;;
5277;SDS011;2662;51.194;6.614;2023-03-24T05:36:16;3.53;;;0.83;;
5277;SDS011;2662;51.194;6.614;2023-03-24T05:38:44;2.27;;;0.83;;
5277;SDS011;2662;51.194;6.614;2023-03-24T05:41:11;4.10;;;0.70;;
5277;SDS011;2662;51.194;6.614;2023-03-24T05:43:37;3.07;;;1.47;;
5277;SDS011;2662;51.194;6.614;2023-03-24T05:46:04;4.10;;;0.90;;
5277;SDS011;2662;51.194;6.614;2023-03-24T05:48:31;4.40;;;1.23;;
5277;SDS011;2662;51.194;6.614;2023-03-24T05:50:58;5.90;;;0.70;;
5277;SDS011;2662;51.194;6.614;2023-03-24T05:53:25;6.23;;;1.33;;
5277;SDS011;2662;51.194;6.614;2023-03-24T05:55:53;2.23;;;0.70;;
5277;SDS011;2662;51.194;6.614;2023-03-24T05:58:22;3.73;;;0.97;;
5277;SDS011;2662;51.194;6.614;2023-03-24T06:00:49;9.60;;;1.27;;
5277;SDS011;2662;51.194;6.614;2023-03-24T06:03:16;8.33;;;1.03;;
5277;SDS011;2662;51.194;6.614;2023-03-24T06:05:42;2.53;;;0.87;;
5277;SDS011;2662;51.194;6.614;2023-03-24T06:08:11;4.30;;;2.13;;
5277;SDS011;2662;51.194;6.614;2023-03-24T06:10:38;4.67;;;1.57;;
5277;SDS011;2662;51.194;6.614;2023-03-24T06:13:06;5.43;;;0.87;;
5277;SDS011;2662;51.194;6.614;2023-03-24T06:15:33;4.37;;;1.30;;
5277;SDS011;2662;51.194;6.614;2023-03-24T06:18:00;5.30;;;1.10;;
5277;SDS011;2662;51.194;6.614;2023-03-24T06:20:29;5.30;;;1.10;;
5277;SDS011;2662;51.194;6.614;2023-03-24T06:22:55;5.80;;;1.43;;
5277;SDS011;2662;51.194;6.614;2023-03-24T06:25:23;10.80;;;1.20;;
5277;SDS011;2662;51.194;6.614;2023-03-24T06:27:51;1.70;;;1.00;;
5277;SDS011;2662;51.194;6.614;2023-03-24T06:30:19;2.20;;;0.70;;
5277;SDS011;2662;51.194;6.614;2023-03-24T06:32:46;3.70;;;1.00;;
5277;SDS011;2662;51.194;6.614;2023-03-24T06:35:12;3.80;;;1.00;;
5277;SDS011;2662;51.194;6.614;2023-03-24T06:37:40;5.37;;;1.00;;
5277;SDS011;2662;51.194;6.614;2023-03-24T06:40:07;6.23;;;1.80;;
5277;SDS011;2662;51.194;6.614;2023-03-24T06:42:37;8.43;;;1.07;;
5277;SDS011;2662;51.194;6.614;2023-03-24T06:45:05;3.60;;;1.17;;
5277;SDS011;2662;51.194;6.614;2023-03-24T06:47:34;7.00;;;1.40;;
5277;SDS011;2662;51.194;6.614;2023-03-24T06:50:00;4.97;;;1.03;;
5277;SDS011;2662;51.194;6.614;2023-03-24T06:52:27;7.10;;;1.57;;
5277;SDS011;2662;51.194;6.614;2023-03-24T06:54:54;4.97;;;1.27;;
5277;SDS011;2662;51.194;6.614;2023-03-24T06:57:22;7.57;;;1.93;;
5277;SDS011;2662;51.194;6.614;2023-03-24T06:59:48;4.63;;;1.40;;
5277;SDS011;2662;51.194;6.614;2023-03-24T07:02:15;2.33;;;0.90;;
5277;SDS011;2662;51.194;6.614;2023-03-24T07:04:43;3.90;;;1.10;;
5277;SDS011;2662;51.194;6.614;2023-03-24T07:07:10;2.97;;;0.93;;
5277;SDS011;2662;51.194;6.614;2023-03-24T07:09:37;5.70;;;1.27;;
5277;SDS011;2662;51.194;6.614;2023-03-24T07:12:04;4.13;;;1.23;;
5277;SDS011;2662;51.194;6.614;2023-03-24T07:14:31;4.80;;;1.00;;
5277;SDS011;2662;51.194;6.614;2023-03-24T07:16:58;2.23;;;1.00;;
5277;SDS011;2662;51.194;6.614;2023-03-24T07:19:25;2.93;;;1.00;;
5277;SDS011;2662;51.194;6.614;2023-03-24T07:21:54;4.60;;;1.10;;
5277;SDS011;2662;51.194;6.614;2023-03-24T07:24:20;7.47;;;1.37;;
5277;SDS011;2662;51.194;6.614;2023-03-24T07:26:47;4.20;;;0.87;;
5277;SDS011;2662;51.194;6.614;2023-03-24T07:29:14;6.20;;;1.63;;
5277;SDS011;2662;51.194;6.614;2023-03-24T07:31:41;8.57;;;1.20;;
5277;SDS011;2662;51.194;6.614;2023-03-24T07:34:08;2.70;;;1.13;;
5277;SDS011;2662;51.194;6.614;2023-03-24T07:36:36;12.10;;;1.70;;
5277;SDS011;2662;51.194;6.614;2023-03-24T07:39:04;11.37;;;2.13;;
5277;SDS011;2662;51.194;6.614;2023-03-24T07:41:32;7.20;;;2.07;;
5277;SDS011;2662;51.194;6.614;2023-03-24T07:43:58;4.57;;;1.60;;
5277;SDS011;2662;51.194;6.614;2023-03-24T07:46:25;7.13;;;1.90;;
5277;SDS011;2662;51.194;6.614;2023-03-24T07:48:52;6.50;;;1.73;;
5277;SDS011;2662;51.194;6.614;2023-03-24T07:51:18;9.00;;;2.50;;
5277;SDS011;2662;51.194;6.614;2023-03-24T07:53:46;9.90;;;2.17;;
5277;SDS011;2662;51.194;6.614;2023-03-24T07:56:14;6.93;;;1.97;;
5277;SDS011;2662;51.194;6.614;2023-03-24T07:58:41;9.30;;;2.37;;
5277;SDS011;2662;51.194;6.614;2023-03-24T08:01:07;6.83;;;2.33;;
5277;SDS011;2662;51.194;6.614;2023-03-24T08:03:35;10.13;;;2.63;;
5277;SDS011;2662;51.194;6.614;2023-03-24T08:06:01;3.43;;;1.80;;
5277;SDS011;2662;51.194;6.614;2023-03-24T08:08:28;5.80;;;2.87;;
5277;SDS011;2662;51.194;6.614;2023-03-24T08:10:55;6.70;;;2.33;;
5277;SDS011;2662;51.194;6.614;2023-03-24T08:13:24;7.20;;;1.90;;
5277;SDS011;2662;51.194;6.614;2023-03-24T08:15:51;17.77;;;2.57;;
5277;SDS011;2662;51.194;6.614;2023-03-24T08:18:18;3.83;;;1.90;;
5277;SDS011;2662;51.194;6.614;2023-03-24T08:20:45;6.00;;;2.27;;
5277;SDS011;2662;51.194;6.614;2023-03-24T08:23:13;7.10;;;1.90;;
5277;SDS011;2662;51.194;6.614;2023-03-24T08:25:40;6.07;;;1.63;;
5277;SDS011;2662;51.194;6.614;2023-03-24T08:28:07;8.53;;;2.47;;
5277;SDS011;2662;51.194;6.614;2023-03-24T08:30:35;9.70;;;2.60;;
5277;SDS011;2662;51.194;6.614;2023-03-24T08:33:02;9.50;;;2.50;;
5277;SDS011;2662;51.194;6.614;2023-03-24T08:35:30;12.53;;;2.47;;
5277;SDS011;2662;51.194;6.614;2023-03-24T08:37:58;17.57;;;1.90;;
5277;SDS011;2662;51.194;6.614;2023-03-24T08:40:27;8.33;;;2.27;;
5277;SDS011;2662;51.194;6.614;2023-03-24T08:42:56;9.30;;;1.50;;
5277;SDS011;2662;51.194;6.614;2023-03-24T08:45:25;6.83;;;1.50;;
5277;SDS011;2662;51.194;6.614;2023-03-24T08:47:56;7.10;;;1.63;;
5277;SDS011;2662;51.194;6.614;2023-03-24T08:50:24;6.83;;;1.73;;
5277;SDS011;2662;51.194;6.614;2023-03-24T08:52:53;13.37;;;2.20;;
5277;SDS011;2662;51.194;6.614;2023-03-24T08:55:20;12.63;;;2.07;;
5277;SDS011;2662;51.194;6.614;2023-03-24T08:57:48;12.57;;;2.30;;
5277;SDS011;2662;51.194;6.614;2023-03-24T09:00:15;7.73;;;1.40;;
5277;SDS011;2662;51.194;6.614;2023-03-24T09:02:45;7.80;;;1.93;;
5277;SDS011;2662;51.194;6.614;2023-03-24T09:05:15;12.83;;;1.87;;
5277;SDS011;2662;51.194;6.614;2023-03-24T09:07:43;6.80;;;1.60;;
5277;SDS011;2662;51.194;6.614;2023-03-24T09:10:10;17.50;;;3.23;;
5277;SDS011;2662;51.194;6.614;2023-03-24T09:12:38;8.30;;;1.80;;
5277;SDS011;2662;51.194;6.614;2023-03-24T09:15:06;7.20;;;1.80;;
5277;SDS011;2662;51.194;6.614;2023-03-24T09:17:34;9.03;;;2.77;;
5277;SDS011;2662;51.194;6.614;2023-03-24T09:20:01;9.60;;;2.40;;
5277;SDS011;2662;51.194;6.614;2023-03-24T09:22:33;6.63;;;2.20;;
5277;SDS011;2662;51.194;6.614;2023-03-24T09:25:01;7.47;;;1.87;;
5277;SDS011;2662;51.194;6.614;2023-03-24T09:27:28;5.60;;;1.93;;
5277;SDS011;2662;51.194;6.614;2023-03-24T09:29:55;8.73;;;2.27;;
5277;SDS011;2662;51.194;6.614;2023-03-24T09:32:22;5.20;;;1.40;;
5277;SDS011;2662;51.194;6.614;2023-03-24T09:34:48;11.10;;;2.33;;
5277;SDS011;2662;51.194;6.614;2023-03-24T09:37:15;8.83;;;2.47;;
5277;SDS011;2662;51.194;6.614;2023-03-24T09:39:43;6.33;;;2.40;;
5277;SDS011;2662;51.194;6.614;2023-03-24T09:42:13;11.43;;;2.80;;
5277;SDS011;2662;51.194;6.614;2023-03-24T09:44:43;8.13;;;2.57;;
5277;SDS011;2662;51.194;6.614;2023-03-24T09:47:24;9.27;;;2.50;;
5277;SDS011;2662;51.194;6.614;2023-03-24T09:49:54;7.37;;;2.47;;
5277;SDS011;2662;51.194;6.614;2023-03-24T09:52:26;14.87;;;3.17;;
5277;SDS011;2662;51.194;6.614;2023-03-24T09:54:59;11.07;;;2.13;;
5277;SDS011;2662;51.194;6.614;2023-03-24T09:57:28;11.03;;;3.10;;
5277;SDS011;2662;51.194;6.614;2023-03-24T10:00:02;8.33;;;3.00;;
5277;SDS011;2662;51.194;6.614;2023-03-24T10:02:42;11.33;;;2.63;;
5277;SDS011;2662;51.194;6.614;2023-03-24T10:05:11;9.00;;;2.23;;
5277;SDS011;2662;51.194;6.614;2023-03-24T10:07:40;5.30;;;2.27;;
5277;SDS011;2662;51.194;6.614;2023-03-24T10:10:16;13.20;;;2.50;;
5277;SDS011;2662;51.194;6.614;2023-03-24T10:12:49;12.50;;;1.63;;
5277;SDS011;2662;51.194;6.614;2023-03-24T10:15:19;3.93;;;1.67;;
5277;SDS011;2662;51.194;6.614;2023-03-24T10:17:52;6.90;;;1.63;;
5277;SDS011;2662;51.194;6.614;2023-03-24T10:20:29;9.00;;;1.70;;
5277;SDS011;2662;51.194;6.614;2023-03-24T10:23:03;9.47;;;1.60;;
5277;SDS011;2662;51.194;6.614;2023-03-24T10:25:47;14.33;;;1.57;;
5277;SDS011;2662;51.194;6.614;2023-03-24T10:28:18;5.20;;;1.67;;
5277;SDS011;2662;51.194;6.614;2023-03-24T10:30:48;9.63;;;2.10;;
5277;SDS011;2662;51.194;6.614;2023-03-24T10:33:17;8.80;;;2.30;;
5277;SDS011;2662;51.194;6.614;2023-03-24T10:35:45;7.93;;;2.37;;
5277;SDS011;2662;51.194;6.614;2023-03-24T10:38:21;4.77;;;1.83;;
5277;SDS011;2662;51.194;6.614;2023-03-24T10:40:49;5.57;;;1.83;;
5277;SDS011;2662;51.194;6.614;2023-03-24T10:43:17;10.50;;;1.80;;
5277;SDS011;2662;51.194;6.614;2023-03-24T10:45:46;6.70;;;1.73;;
5277;SDS011;2662;51.194;6.614;2023-03-24T10:48:32;3.17;;;1.20;;
5277;SDS011;2662;51.194;6.614;2023-03-24T10:51:00;7.40;;;1.77;;
5277;SDS011;2662;51.194;6.614;2023-03-24T10:53:27;6.03;;;1.50;;
5277;SDS011;2662;51.194;6.614;2023-03-24T10:55:55;7.87;;;1.90;;
5277;SDS011;2662;51.194;6.614;2023-03-24T10:58:27;9.20;;;1.57;;
5277;SDS011;2662;51.194;6.614;2023-03-24T11:00:55;3.13;;;1.60;;
5277;SDS011;2662;51.194;6.614;2023-03-24T11:03:25;2.87;;;1.37;;
5277;SDS011;2662;51.194;6.614;2023-03-24T11:05:56;9.57;;;1.93;;
5277;SDS011;2662;51.194;6.614;2023-03-24T11:08:26;2.70;;;1.10;;
5277;SDS011;2662;51.194;6.614;2023-03-24T11:10:58;5.57;;;1.70;;
5277;SDS011;2662;51.194;6.614;2023-03-24T11:13:27;7.13;;;1.63;;
5277;SDS011;2662;51.194;6.614;2023-03-24T11:15:56;6.20;;;1.53;;
5277;SDS011;2662;51.194;6.614;2023-03-24T11:18:32;6.73;;;1.90;;
5277;SDS011;2662;51.194;6.614;2023-03-24T11:20:59;5.93;;;1.70;;
5277;SDS011;2662;51.194;6.614;2023-03-24T11:23:29;7.30;;;2.07;;
5277;SDS011;2662;51.194;6.614;2023-03-24T11:26:03;5.63;;;1.77;;
5277;SDS011;2662;51.194;6.614;2023-03-24T11:28:34;3.80;;;1.40;;
5277;SDS011;2662;51.194;6.614;2023-03-24T11:31:04;4.77;;;1.13;;
5277;SDS011;2662;51.194;6.614;2023-03-24T11:33:33;6.70;;;1.83;;
5277;SDS011;2662;51.194;6.614;2023-03-24T11:36:13;8.30;;;1.80;;
5277;SDS011;2662;51.194;6.614;2023-03-24T11:39:16;2.50;;;1.00;;
5277;SDS011;2662;51.194;6.614;2023-03-24T11:44:30;4.37;;;1.50;;
5277;SDS011;2662;51.194;6.614;2023-03-24T11:47:07;9.13;;;1.60;;
5277;SDS011;2662;51.194;6.614;2023-03-24T11:49:38;7.73;;;1.33;;
5277;SDS011;2662;51.194;6.614;2023-03-24T11:52:11;6.63;;;1.47;;
5277;SDS011;2662;51.194;6.614;2023-03-24T11:54:44;4.70;;;1.53;;
5277;SDS011;2662;51.194;6.614;2023-03-24T11:57:13;4.83;;;1.40;;
5277;SDS011;2662;51.194;6.614;2023-03-24T11:59:45;7.70;;;1.53;;
5277;SDS011;2662;51.194;6.614;2023-03-24T12:02:18;5.80;;;1.30;;
5277;SDS011;2662;51.194;6.614;2023-03-24T12:04:55;4.10;;;1.40;;
5277;SDS011;2662;51.194;6.614;2023-03-24T12:07:38;10.97;;;1.60;;
5277;SDS011;2662;51.194;6.614;2023-03-24T12:10:29;8.73;;;1.60;;
5277;SDS011;2662;51.194;6.614;2023-03-24T12:13:08;6.10;;;1.60;;
5277;SDS011;2662;51.194;6.614;2023-03-24T12:15:44;5.00;;;1.30;;
5277;SDS011;2662;51.194;6.614;2023-03-24T12:18:24;4.73;;;1.30;;
5277;SDS011;2662;51.194;6.614;2023-03-24T12:21:15;7.20;;;1.37;;
5277;SDS011;2662;51.194;6.614;2023-03-24T12:23:52;5.97;;;1.20;;
5277;SDS011;2662;51.194;6.614;2023-03-24T12:26:23;9.80;;;1.93;;
5277;SDS011;2662;51.194;6.614;2023-03-24T12:31:55;5.63;;;1.20;;
5277;SDS011;2662;51.194;6.614;2023-03-24T12:37:30;6.37;;;1.90;;
5277;SDS011;2662;51.194;6.614;2023-03-24T12:40:25;5.80;;;1.57;;
5277;SDS011;2662;51.194;6.614;2023-03-24T12:43:17;6.00;;;1.43;;
5277;SDS011;2662;51.194;6.614;2023-03-24T12:45:53;7.30;;;1.50;;
5277;SDS011;2662;51.194;6.614;2023-03-24T12:48:29;7.50;;;1.47;;
5277;SDS011;2662;51.194;6.614;2023-03-24T12:51:08;7.33;;;1.27;;
5277;SDS011;2662;51.194;6.614;2023-03-24T12:53:46;5.70;;;1.50;;
5277;SDS011;2662;51.194;6.614;2023-03-24T12:56:22;7.70;;;1.50;;
5277;SDS011;2662;51.194;6.614;2023-03-24T12:58:55;3.17;;;1.23;;
5277;SDS011;2662;51.194;6.614;2023-03-24T13:01:28;4.13;;;1.40;;
5277;SDS011;2662;51.194;6.614;2023-03-24T13:04:02;2.60;;;1.20;;
5277;SDS011;2662;51.194;6.614;2023-03-24T13:06:35;11.70;;;1.60;;
5277;SDS011;2662;51.194;6.614;2023-03-24T13:09:10;5.13;;;1.30;;
5277;SDS011;2662;51.194;6.614;2023-03-24T13:11:44;2.93;;;1.30;;
5277;SDS011;2662;51.194;6.614;2023-03-24T13:14:17;3.67;;;1.10;;
5277;SDS011;2662;51.194;6.614;2023-03-24T13:16:50;4.90;;;1.10;;
5277;SDS011;2662;51.194;6.614;2023-03-24T13:19:22;7.83;;;1.40;;
5277;SDS011;2662;51.194;6.614;2023-03-24T13:21:49;6.37;;;1.33;;
5277;SDS011;2662;51.194;6.614;2023-03-24T13:24:19;4.20;;;1.10;;
5277;SDS011;2662;51.194;6.614;2023-03-24T13:26:47;4.00;;;1.17;;
5277;SDS011;2662;51.194;6.614;2023-03-24T13:29:24;2.73;;;1.07;;
5277;SDS011;2662;51.194;6.614;2023-03-24T13:32:23;3.80;;;1.27;;
5277;SDS011;2662;51.194;6.614;2023-03-24T13:34:55;2.87;;;1.33;;
5277;SDS011;2662;51.194;6.614;2023-03-24T13:37:27;7.00;;;1.17;;
5277;SDS011;2662;51.194;6.614;2023-03-24T13:39:59;5.70;;;1.43;;
5277;SDS011;2662;51.194;6.614;2023-03-24T13:42:31;4.27;;;1.13;;
5277;SDS011;2662;51.194;6.614;2023-03-24T13:45:01;2.90;;;1.07;;
5277;SDS011;2662;51.194;6.614;2023-03-24T13:50:24;6.63;;;1.07;;
5277;SDS011;2662;51.194;6.614;2023-03-24T13:52:52;5.30;;;1.00;;
5277;SDS011;2662;51.194;6.614;2023-03-24T13:55:30;2.90;;;1.13;;
5277;SDS011;2662;51.194;6.614;2023-03-24T13:58:03;3.30;;;1.30;;
5277;SDS011;2662;51.194;6.614;2023-03-24T14:00:36;6.43;;;1.30;;
5277;SDS011;2662;51.194;6.614;2023-03-24T14:03:42;3.67;;;1.30;;
5277;SDS011;2662;51.194;6.614;2023-03-24T14:06:11;7.17;;;1.00;;
5277;SDS011;2662;51.194;6.614;2023-03-24T14:08:42;5.67;;;1.33;;
5277;SDS011;2662;51.194;6.614;2023-03-24T14:14:17;5.10;;;1.10;;
5277;SDS011;2662;51.194;6.614;2023-03-24T14:16:50;4.73;;;1.00;;
5277;SDS011;2662;51.194;6.614;2023-03-24T14:19:28;3.53;;;1.57;;
5277;SDS011;2662;51.194;6.614;2023-03-24T14:22:02;1.57;;;1.07;;
5277;SDS011;2662;51.194;6.614;2023-03-24T14:24:35;2.70;;;1.10;;
5277;SDS011;2662;51.194;6.614;2023-03-24T14:29:58;4.07;;;1.30;;
5277;SDS011;2662;51.194;6.614;2023-03-24T14:32:30;4.40;;;0.93;;
5277;SDS011;2662;51.194;6.614;2023-03-24T14:35:04;8.07;;;1.87;;
5277;SDS011;2662;51.194;6.614;2023-03-24T14:37:47;3.23;;;1.10;;
5277;SDS011;2662;51.194;6.614;2023-03-24T14:40:22;6.10;;;1.00;;
5277;SDS011;2662;51.194;6.614;2023-03-24T14:42:52;4.23;;;1.07;;
5277;SDS011;2662;51.194;6.614;2023-03-24T14:45:37;4.00;;;0.93;;
5277;SDS011;2662;51.194;6.614;2023-03-24T14:48:35;1.67;;;0.70;;
5277;SDS011;2662;51.194;6.614;2023-03-24T14:51:07;4.60;;;1.10;;
5277;SDS011;2662;51.194;6.614;2023-03-24T14:53:43;3.93;;;1.10;;
5277;SDS011;2662;51.194;6.614;2023-03-24T14:56:11;4.40;;;1.20;;
5277;SDS011;2662;51.194;6.614;2023-03-24T14:58:40;2.60;;;1.00;;
5277;SDS011;2662;51.194;6.614;2023-03-24T15:01:09;2.83;;;1.53;;
5277;SDS011;2662;51.194;6.614;2023-03-24T15:03:38;2.97;;;1.00;;
5277;SDS011;2662;51.194;6.614;2023-03-24T15:06:13;8.17;;;1.50;;
5277;SDS011;2662;51.194;6.614;2023-03-24T15:08:47;5.13;;;1.33;;
5277;SDS011;2662;51.194;6.614;2023-03-24T15:11:16;9.30;;;1.23;;
5277;SDS011;2662;51.194;6.614;2023-03-24T15:13:47;5.20;;;1.13;;
5277;SDS011;2662;51.194;6.614;2023-03-24T15:16:17;4.67;;;0.87;;
5277;SDS011;2662;51.194;6.614;2023-03-24T15:18:46;3.73;;;1.60;;
5277;SDS011;2662;51.194;6.614;2023-03-24T15:21:19;2.80;;;1.30;;
5277;SDS011;2662;51.194;6.614;2023-03-24T15:23:51;3.53;;;1.37;;
5277;SDS011;2662;51.194;6.614;2023-03-24T15:26:19;3.80;;;1.37;;
5277;SDS011;2662;51.194;6.614;2023-03-24T15:28:52;11.90;;;1.60;;
5277;SDS011;2662;51.194;6.614;2023-03-24T15:31:21;4.07;;;1.37;;
5277;SDS011;2662;51.194;6.614;2023-03-24T15:33:49;5.00;;;1.37;;
5277;SDS011;2662;51.194;6.614;2023-03-24T15:36:19;9.47;;;1.20;;
5277;SDS011;2662;51.194;6.614;2023-03-24T15:38:48;9.23;;;0.97;;
5277;SDS011;2662;51.194;6.614;2023-03-24T15:41:19;3.77;;;0.87;;
5277;SDS011;2662;51.194;6.614;2023-03-24T15:43:49;1.43;;;0.67;;
5277;SDS011;2662;51.194;6.614;2023-03-24T15:46:22;4.63;;;0.80;;
5277;SDS011;2662;51.194;6.614;2023-03-24T15:48:52;1.60;;;0.67;;
5277;SDS011;2662;51.194;6.614;2023-03-24T15:51:33;0.83;;;0.70;;
5277;SDS011;2662;51.194;6.614;2023-03-24T15:54:16;3.90;;;0.80;;
5277;SDS011;2662;51.194;6.614;2023-03-24T15:57:02;1.93;;;0.83;;
5277;SDS011;2662;51.194;6.614;2023-03-24T15:59:42;2.70;;;0.70;;
5277;SDS011;2662;51.194;6.614;2023-03-24T16:02:13;1.83;;;0.67;;
5277;SDS011;2662;51.194;6.614;2023-03-24T16:04:49;0.80;;;0.70;;
5277;SDS011;2662;51.194;6.614;2023-03-24T16:07:23;4.60;;;0.70;;